Ascutney, VT (05030)

6:44 PM EDT on September 23, 2014 (GMT -0400)
Pikes Peak | Change Station
CLOSE
Current Station
Personal Weather Station
Location: Weathersfield, VT
Elevation: 1200 ft
Nearby Weather Stations

Elev 1200 ft 43.40 °N, 72.48 °W | Updated 4 minutes ago

Partly Cloudy
Partly Cloudy
58.1 °F
Feels Like 58.1 °F
N
0.0
Wind Variable Wind from SW
Gusts 6.0 mph

Today
High -- | Low -- °F
--% Chance of Precip.
Yesterday
High -- | Low -- °F
Precip. -- in
6:38 AM 6:45 PM
Waning Crescent, 0% visible
Pressure 30.30 in
Visibility 10.0 miles
Clouds Clear
Dew Point 50 °F
Humidity 73%
Rainfall 0.00 in
Snow Depth Not available.
UV 0 out of 12
Pollen 2.00 out of 12
Air Quality Not available.
Flu Activity Not available.
METAR KLEB 232153Z 27008KT 10SM CLR 18/08 A3030 RMK AO2 SLP261 T01780078

More Conditions Fewer Conditions

Pressure 30.30 in
Visibility 10.0 miles
Clouds Clear
Dew Point 50 °F
Humidity 73%
Rainfall 0.00 in
Snow Depth Not available.
UV 0 out of 12
Pollen 2.00 out of 12
Air Quality Not available.
Flu Activity Not available.
METAR KLEB 232153Z 27008KT 10SM CLR 18/08 A3030 RMK AO2 SLP261 T01780078

More Conditions Fewer Conditions

10-Day Weather Forecast

Almanac

Astronomy

Sep. 23, 2014 Rise Set
Actual Time 6:38 AM EDT 6:45 PM EDT
Civil Twilight 6:09 AM EDT 7:13 PM EDT
Nautical Twilight 5:36 AM EDT 7:47 PM EDT
Astronomical Twilight 5:01 AM EDT 8:21 PM EDT
Moon 5:59 AM EDT 6:22 PM EDT
Length of Visible Light 13h 04m
Length of Day
12h 07m
Tomorrow will be 2m 57s shorter.
Waning Crescent, 0% of the Moon is Illuminated
Today
Waning Crescent
Sep 24
New
Oct 1
First Quarter
Oct 8
Full
Oct 15
Last Quarter

Today's Extremes

State Highs State Lows

Community

WunderPhotos

Upload Photos

1,755,810 photos uploaded!

WunderBlogs® & News

Nearby

Air Quality

  Air Quality AQ Index Pollutant
Yesterday Good
OZONE
Tuesday Good
PM2.5
Tuesday Good
OZONE
Wednesday Good
PM2.5
Wednesday Good
OZONE
Thursday Good
PM2.5
Thursday Good
OZONE

Snow Depth

Station Depth Elevation
No new snow has been reported.

Earthquake Activity

City Distance Mag. Time & Date
No recent earthquake activity has been reported nearby.
Minimum magnitude displayed is 2.5.

Coastal Water Temperatures

Place Temperature
No Stations Reporting

Nearby Weather Stations